sensor_id;sensor_type;location;lat;lon;timestamp;P1;durP1;ratioP1;P2;durP2;ratioP2
75851;SDS011;64500;52.632;20.656;2023-08-12T00:01:41;18.40;;;9.00;;
75851;SDS011;64500;52.632;20.656;2023-08-12T00:04:09;16.50;;;9.00;;
75851;SDS011;64500;52.632;20.656;2023-08-12T00:06:36;19.80;;;9.40;;
75851;SDS011;64500;52.632;20.656;2023-08-12T00:09:04;20.70;;;9.60;;
75851;SDS011;64500;52.632;20.656;2023-08-12T00:11:31;20.70;;;8.80;;
75851;SDS011;64500;52.632;20.656;2023-08-12T00:13:58;27.10;;;10.10;;
75851;SDS011;64500;52.632;20.656;2023-08-12T00:16:29;18.40;;;9.20;;
75851;SDS011;64500;52.632;20.656;2023-08-12T00:18:56;20.80;;;9.30;;
75851;SDS011;64500;52.632;20.656;2023-08-12T00:21:33;19.50;;;9.60;;
75851;SDS011;64500;52.632;20.656;2023-08-12T00:24:00;17.20;;;9.10;;
75851;SDS011;64500;52.632;20.656;2023-08-12T00:26:36;18.40;;;9.30;;
75851;SDS011;64500;52.632;20.656;2023-08-12T00:29:04;19.60;;;8.90;;
75851;SDS011;64500;52.632;20.656;2023-08-12T00:31:32;16.60;;;8.40;;
75851;SDS011;64500;52.632;20.656;2023-08-12T00:33:59;18.70;;;9.00;;
75851;SDS011;64500;52.632;20.656;2023-08-12T00:36:33;24.20;;;8.80;;
75851;SDS011;64500;52.632;20.656;2023-08-12T00:39:00;15.60;;;8.40;;
75851;SDS011;64500;52.632;20.656;2023-08-12T00:41:28;19.20;;;8.70;;
75851;SDS011;64500;52.632;20.656;2023-08-12T00:43:55;16.70;;;8.10;;
75851;SDS011;64500;52.632;20.656;2023-08-12T00:46:23;16.60;;;8.70;;
75851;SDS011;64500;52.632;20.656;2023-08-12T00:49:04;15.60;;;8.30;;
75851;SDS011;64500;52.632;20.656;2023-08-12T00:51:31;16.90;;;9.20;;
75851;SDS011;64500;52.632;20.656;2023-08-12T00:54:04;17.60;;;9.20;;
75851;SDS011;64500;52.632;20.656;2023-08-12T00:56:45;20.10;;;9.10;;
75851;SDS011;64500;52.632;20.656;2023-08-12T00:59:13;22.40;;;9.50;;
75851;SDS011;64500;52.632;20.656;2023-08-12T01:01:41;15.20;;;8.60;;
75851;SDS011;64500;52.632;20.656;2023-08-12T01:04:10;16.80;;;9.00;;
75851;SDS011;64500;52.632;20.656;2023-08-12T01:06:37;16.90;;;8.60;;
75851;SDS011;64500;52.632;20.656;2023-08-12T01:09:05;17.50;;;9.20;;
75851;SDS011;64500;52.632;20.656;2023-08-12T01:11:42;16.90;;;9.10;;
75851;SDS011;64500;52.632;20.656;2023-08-12T01:16:58;18.00;;;9.20;;
75851;SDS011;64500;52.632;20.656;2023-08-12T01:19:34;16.40;;;9.20;;
75851;SDS011;64500;52.632;20.656;2023-08-12T01:22:03;16.70;;;9.50;;
75851;SDS011;64500;52.632;20.656;2023-08-12T01:24:37;17.20;;;9.10;;
75851;SDS011;64500;52.632;20.656;2023-08-12T01:27:06;20.40;;;9.80;;
75851;SDS011;64500;52.632;20.656;2023-08-12T01:29:38;19.10;;;9.40;;
75851;SDS011;64500;52.632;20.656;2023-08-12T01:38:07;15.80;;;9.20;;
75851;SDS011;64500;52.632;20.656;2023-08-12T01:40:36;17.00;;;9.20;;
75851;SDS011;64500;52.632;20.656;2023-08-12T01:45:35;17.20;;;9.30;;
75851;SDS011;64500;52.632;20.656;2023-08-12T01:48:02;16.00;;;9.00;;
75851;SDS011;64500;52.632;20.656;2023-08-12T01:50:30;19.40;;;10.10;;
75851;SDS011;64500;52.632;20.656;2023-08-12T01:53:01;18.40;;;9.50;;
75851;SDS011;64500;52.632;20.656;2023-08-12T01:55:28;19.00;;;9.90;;
75851;SDS011;64500;52.632;20.656;2023-08-12T01:57:58;21.80;;;10.00;;
75851;SDS011;64500;52.632;20.656;2023-08-12T02:00:25;21.40;;;11.50;;
75851;SDS011;64500;52.632;20.656;2023-08-12T02:02:52;18.90;;;11.30;;
75851;SDS011;64500;52.632;20.656;2023-08-12T02:05:19;19.60;;;10.60;;
75851;SDS011;64500;52.632;20.656;2023-08-12T02:07:46;19.50;;;10.40;;
75851;SDS011;64500;52.632;20.656;2023-08-12T02:10:14;17.50;;;10.70;;
75851;SDS011;64500;52.632;20.656;2023-08-12T02:12:41;21.50;;;11.00;;
75851;SDS011;64500;52.632;20.656;2023-08-12T02:15:09;18.20;;;10.30;;
75851;SDS011;64500;52.632;20.656;2023-08-12T02:17:36;19.30;;;10.30;;
75851;SDS011;64500;52.632;20.656;2023-08-12T02:20:04;17.70;;;10.00;;
75851;SDS011;64500;52.632;20.656;2023-08-12T02:22:32;16.30;;;9.20;;
75851;SDS011;64500;52.632;20.656;2023-08-12T02:24:59;15.90;;;9.40;;
75851;SDS011;64500;52.632;20.656;2023-08-12T02:27:26;18.70;;;9.80;;
75851;SDS011;64500;52.632;20.656;2023-08-12T02:29:53;17.30;;;9.70;;
75851;SDS011;64500;52.632;20.656;2023-08-12T02:32:21;17.60;;;9.60;;
75851;SDS011;64500;52.632;20.656;2023-08-12T02:34:48;18.10;;;9.40;;
75851;SDS011;64500;52.632;20.656;2023-08-12T02:37:15;15.20;;;9.00;;
75851;SDS011;64500;52.632;20.656;2023-08-12T02:39:43;18.00;;;9.40;;
75851;SDS011;64500;52.632;20.656;2023-08-12T02:42:12;18.80;;;9.80;;
75851;SDS011;64500;52.632;20.656;2023-08-12T02:44:40;16.00;;;10.10;;
75851;SDS011;64500;52.632;20.656;2023-08-12T02:47:07;17.10;;;9.20;;
75851;SDS011;64500;52.632;20.656;2023-08-12T02:49:34;14.70;;;9.40;;
75851;SDS011;64500;52.632;20.656;2023-08-12T02:52:01;16.80;;;9.40;;
75851;SDS011;64500;52.632;20.656;2023-08-12T02:54:28;18.70;;;9.50;;
75851;SDS011;64500;52.632;20.656;2023-08-12T02:57:02;16.20;;;8.70;;
75851;SDS011;64500;52.632;20.656;2023-08-12T02:59:29;16.60;;;9.10;;
75851;SDS011;64500;52.632;20.656;2023-08-12T03:01:56;15.60;;;9.20;;
75851;SDS011;64500;52.632;20.656;2023-08-12T03:04:23;16.40;;;9.20;;
75851;SDS011;64500;52.632;20.656;2023-08-12T03:06:51;14.90;;;9.00;;
75851;SDS011;64500;52.632;20.656;2023-08-12T03:09:18;14.10;;;9.10;;
75851;SDS011;64500;52.632;20.656;2023-08-12T03:11:46;17.10;;;8.60;;
75851;SDS011;64500;52.632;20.656;2023-08-12T03:14:37;19.80;;;9.30;;
75851;SDS011;64500;52.632;20.656;2023-08-12T03:17:03;16.40;;;8.90;;
75851;SDS011;64500;52.632;20.656;2023-08-12T03:19:30;16.30;;;8.70;;
75851;SDS011;64500;52.632;20.656;2023-08-12T03:21:57;16.80;;;8.50;;
75851;SDS011;64500;52.632;20.656;2023-08-12T03:24:25;16.40;;;8.30;;
75851;SDS011;64500;52.632;20.656;2023-08-12T03:26:52;15.50;;;7.80;;
75851;SDS011;64500;52.632;20.656;2023-08-12T03:29:19;14.50;;;7.30;;
75851;SDS011;64500;52.632;20.656;2023-08-12T03:31:46;13.10;;;8.00;;
75851;SDS011;64500;52.632;20.656;2023-08-12T03:34:13;16.60;;;8.30;;
75851;SDS011;64500;52.632;20.656;2023-08-12T03:36:40;16.80;;;8.00;;
75851;SDS011;64500;52.632;20.656;2023-08-12T03:39:07;15.50;;;8.10;;
75851;SDS011;64500;52.632;20.656;2023-08-12T03:41:34;17.30;;;7.90;;
75851;SDS011;64500;52.632;20.656;2023-08-12T03:44:01;14.70;;;7.90;;
75851;SDS011;64500;52.632;20.656;2023-08-12T03:46:36;15.90;;;7.80;;
75851;SDS011;64500;52.632;20.656;2023-08-12T03:49:03;14.00;;;7.60;;
75851;SDS011;64500;52.632;20.656;2023-08-12T03:51:30;13.50;;;7.40;;
75851;SDS011;64500;52.632;20.656;2023-08-12T03:53:57;17.60;;;7.70;;
75851;SDS011;64500;52.632;20.656;2023-08-12T03:56:25;12.70;;;7.00;;
75851;SDS011;64500;52.632;20.656;2023-08-12T03:58:52;12.90;;;7.20;;
75851;SDS011;64500;52.632;20.656;2023-08-12T04:01:19;14.70;;;7.20;;
75851;SDS011;64500;52.632;20.656;2023-08-12T04:03:46;11.70;;;6.90;;
75851;SDS011;64500;52.632;20.656;2023-08-12T04:06:19;17.00;;;7.60;;
75851;SDS011;64500;52.632;20.656;2023-08-12T04:08:46;12.20;;;6.00;;
75851;SDS011;64500;52.632;20.656;2023-08-12T04:11:13;12.20;;;6.50;;
75851;SDS011;64500;52.632;20.656;2023-08-12T04:16:25;10.70;;;5.30;;
75851;SDS011;64500;52.632;20.656;2023-08-12T04:18:54;11.90;;;5.20;;
75851;SDS011;64500;52.632;20.656;2023-08-12T04:21:38;12.80;;;5.50;;
75851;SDS011;64500;52.632;20.656;2023-08-12T04:24:39;9.80;;;4.60;;
75851;SDS011;64500;52.632;20.656;2023-08-12T04:27:28;11.00;;;4.70;;
75851;SDS011;64500;52.632;20.656;2023-08-12T04:30:20;11.00;;;4.50;;
75851;SDS011;64500;52.632;20.656;2023-08-12T04:33:19;9.40;;;4.20;;
75851;SDS011;64500;52.632;20.656;2023-08-12T04:35:57;9.10;;;4.30;;
75851;SDS011;64500;52.632;20.656;2023-08-12T04:38:28;10.10;;;3.90;;
75851;SDS011;64500;52.632;20.656;2023-08-12T04:41:14;10.00;;;4.20;;
75851;SDS011;64500;52.632;20.656;2023-08-12T04:44:20;10.10;;;4.80;;
75851;SDS011;64500;52.632;20.656;2023-08-12T04:46:53;11.30;;;4.10;;
75851;SDS011;64500;52.632;20.656;2023-08-12T04:49:52;10.10;;;3.90;;
75851;SDS011;64500;52.632;20.656;2023-08-12T04:52:40;10.90;;;4.40;;
75851;SDS011;64500;52.632;20.656;2023-08-12T04:55:21;9.30;;;4.30;;
75851;SDS011;64500;52.632;20.656;2023-08-12T04:58:39;8.20;;;3.70;;
75851;SDS011;64500;52.632;20.656;2023-08-12T05:01:11;8.00;;;3.90;;
75851;SDS011;64500;52.632;20.656;2023-08-12T05:04:01;7.60;;;3.60;;
75851;SDS011;64500;52.632;20.656;2023-08-12T05:06:31;8.80;;;3.80;;
75851;SDS011;64500;52.632;20.656;2023-08-12T05:09:19;8.40;;;4.30;;
75851;SDS011;64500;52.632;20.656;2023-08-12T05:12:13;9.50;;;3.80;;
75851;SDS011;64500;52.632;20.656;2023-08-12T05:15:13;8.30;;;3.70;;
75851;SDS011;64500;52.632;20.656;2023-08-12T05:18:14;9.40;;;3.60;;
75851;SDS011;64500;52.632;20.656;2023-08-12T05:21:06;7.40;;;3.50;;
75851;SDS011;64500;52.632;20.656;2023-08-12T05:23:39;9.60;;;3.80;;
75851;SDS011;64500;52.632;20.656;2023-08-12T05:26:35;8.60;;;3.70;;
75851;SDS011;64500;52.632;20.656;2023-08-12T05:29:25;10.00;;;3.90;;
75851;SDS011;64500;52.632;20.656;2023-08-12T05:35:11;11.40;;;3.90;;
75851;SDS011;64500;52.632;20.656;2023-08-12T05:38:11;7.40;;;3.30;;
75851;SDS011;64500;52.632;20.656;2023-08-12T05:41:18;8.00;;;3.50;;
75851;SDS011;64500;52.632;20.656;2023-08-12T05:49:59;8.40;;;3.40;;
75851;SDS011;64500;52.632;20.656;2023-08-12T05:52:37;8.10;;;3.60;;
75851;SDS011;64500;52.632;20.656;2023-08-12T06:01:36;10.40;;;3.30;;
75851;SDS011;64500;52.632;20.656;2023-08-12T06:04:18;8.60;;;2.90;;
75851;SDS011;64500;52.632;20.656;2023-08-12T06:07:14;6.10;;;2.30;;
75851;SDS011;64500;52.632;20.656;2023-08-12T06:12:42;7.60;;;2.70;;
75851;SDS011;64500;52.632;20.656;2023-08-12T06:18:30;7.10;;;2.70;;
75851;SDS011;64500;52.632;20.656;2023-08-12T06:24:16;8.20;;;2.60;;
75851;SDS011;64500;52.632;20.656;2023-08-12T06:27:27;7.40;;;2.60;;
75851;SDS011;64500;52.632;20.656;2023-08-12T06:30:16;10.20;;;2.90;;
75851;SDS011;64500;52.632;20.656;2023-08-12T06:32:59;8.00;;;2.80;;
75851;SDS011;64500;52.632;20.656;2023-08-12T06:35:55;8.90;;;3.10;;
75851;SDS011;64500;52.632;20.656;2023-08-12T06:38:54;13.40;;;3.10;;
75851;SDS011;64500;52.632;20.656;2023-08-12T06:41:54;7.40;;;2.90;;
75851;SDS011;64500;52.632;20.656;2023-08-12T06:53:42;7.00;;;2.40;;
75851;SDS011;64500;52.632;20.656;2023-08-12T06:56:34;7.10;;;2.70;;
75851;SDS011;64500;52.632;20.656;2023-08-12T07:02:22;9.30;;;3.20;;
75851;SDS011;64500;52.632;20.656;2023-08-12T07:05:09;10.10;;;2.80;;
75851;SDS011;64500;52.632;20.656;2023-08-12T07:08:05;8.00;;;2.60;;
75851;SDS011;64500;52.632;20.656;2023-08-12T07:11:04;9.10;;;2.60;;
75851;SDS011;64500;52.632;20.656;2023-08-12T07:13:57;7.70;;;2.50;;
75851;SDS011;64500;52.632;20.656;2023-08-12T07:16:43;7.70;;;3.10;;
75851;SDS011;64500;52.632;20.656;2023-08-12T07:19:26;7.60;;;2.60;;
75851;SDS011;64500;52.632;20.656;2023-08-12T07:22:14;8.50;;;2.50;;
75851;SDS011;64500;52.632;20.656;2023-08-12T07:24:52;10.50;;;2.90;;
75851;SDS011;64500;52.632;20.656;2023-08-12T07:30:34;7.80;;;2.60;;
75851;SDS011;64500;52.632;20.656;2023-08-12T07:39:46;8.00;;;2.50;;
75851;SDS011;64500;52.632;20.656;2023-08-12T07:42:39;9.60;;;2.60;;
75851;SDS011;64500;52.632;20.656;2023-08-12T07:45:17;8.10;;;2.60;;
75851;SDS011;64500;52.632;20.656;2023-08-12T07:48:04;8.80;;;2.60;;
75851;SDS011;64500;52.632;20.656;2023-08-12T07:50:43;8.20;;;2.70;;
75851;SDS011;64500;52.632;20.656;2023-08-12T07:54:00;9.00;;;2.30;;
75851;SDS011;64500;52.632;20.656;2023-08-12T07:56:40;7.10;;;2.30;;
75851;SDS011;64500;52.632;20.656;2023-08-12T08:02:18;8.30;;;2.30;;
75851;SDS011;64500;52.632;20.656;2023-08-12T08:05:29;9.40;;;1.90;;
75851;SDS011;64500;52.632;20.656;2023-08-12T08:11:17;5.90;;;2.20;;
75851;SDS011;64500;52.632;20.656;2023-08-12T08:14:10;8.10;;;2.20;;
75851;SDS011;64500;52.632;20.656;2023-08-12T08:16:56;4.90;;;1.70;;
75851;SDS011;64500;52.632;20.656;2023-08-12T08:19:53;7.50;;;2.10;;
75851;SDS011;64500;52.632;20.656;2023-08-12T08:26:11;8.60;;;2.40;;
75851;SDS011;64500;52.632;20.656;2023-08-12T08:28:58;7.00;;;2.30;;
75851;SDS011;64500;52.632;20.656;2023-08-12T08:31:30;6.00;;;2.00;;
75851;SDS011;64500;52.632;20.656;2023-08-12T08:37:31;7.70;;;2.30;;
75851;SDS011;64500;52.632;20.656;2023-08-12T08:43:29;9.30;;;2.30;;
75851;SDS011;64500;52.632;20.656;2023-08-12T08:46:30;9.10;;;2.10;;
75851;SDS011;64500;52.632;20.656;2023-08-12T08:52:14;5.60;;;1.70;;
75851;SDS011;64500;52.632;20.656;2023-08-12T09:04:13;7.00;;;2.10;;
75851;SDS011;64500;52.632;20.656;2023-08-12T09:06:48;6.70;;;2.20;;
75851;SDS011;64500;52.632;20.656;2023-08-12T09:09:37;8.20;;;2.00;;
75851;SDS011;64500;52.632;20.656;2023-08-12T09:15:23;5.60;;;2.00;;
75851;SDS011;64500;52.632;20.656;2023-08-12T09:18:24;6.00;;;2.00;;
75851;SDS011;64500;52.632;20.656;2023-08-12T09:20:59;7.70;;;1.90;;
75851;SDS011;64500;52.632;20.656;2023-08-12T09:26:54;6.90;;;1.70;;
75851;SDS011;64500;52.632;20.656;2023-08-12T09:29:35;5.90;;;1.80;;
75851;SDS011;64500;52.632;20.656;2023-08-12T09:32:30;8.00;;;2.10;;
75851;SDS011;64500;52.632;20.656;2023-08-12T09:35:16;4.90;;;1.70;;
75851;SDS011;64500;52.632;20.656;2023-08-12T09:40:52;9.10;;;2.30;;
75851;SDS011;64500;52.632;20.656;2023-08-12T09:43:27;8.90;;;2.10;;
75851;SDS011;64500;52.632;20.656;2023-08-12T09:46:36;6.80;;;1.60;;
75851;SDS011;64500;52.632;20.656;2023-08-12T09:49:18;10.20;;;1.70;;
75851;SDS011;64500;52.632;20.656;2023-08-12T09:52:11;6.40;;;2.00;;
75851;SDS011;64500;52.632;20.656;2023-08-12T09:55:22;6.30;;;1.70;;
75851;SDS011;64500;52.632;20.656;2023-08-12T09:58:20;8.10;;;2.50;;
75851;SDS011;64500;52.632;20.656;2023-08-12T10:01:10;7.10;;;2.10;;
75851;SDS011;64500;52.632;20.656;2023-08-12T10:03:57;7.00;;;2.00;;
75851;SDS011;64500;52.632;20.656;2023-08-12T10:06:31;6.60;;;1.90;;
75851;SDS011;64500;52.632;20.656;2023-08-12T10:09:12;6.70;;;2.40;;
75851;SDS011;64500;52.632;20.656;2023-08-12T10:11:55;6.60;;;1.90;;
75851;SDS011;64500;52.632;20.656;2023-08-12T10:14:34;5.10;;;1.80;;
75851;SDS011;64500;52.632;20.656;2023-08-12T10:17:19;8.20;;;2.20;;
75851;SDS011;64500;52.632;20.656;2023-08-12T10:23:16;5.80;;;1.70;;
75851;SDS011;64500;52.632;20.656;2023-08-12T10:25:46;9.70;;;2.40;;
75851;SDS011;64500;52.632;20.656;2023-08-12T10:28:25;7.40;;;2.00;;
75851;SDS011;64500;52.632;20.656;2023-08-12T10:31:22;7.00;;;2.00;;
75851;SDS011;64500;52.632;20.656;2023-08-12T10:34:04;5.40;;;1.70;;
75851;SDS011;64500;52.632;20.656;2023-08-12T10:37:05;8.30;;;1.70;;
75851;SDS011;64500;52.632;20.656;2023-08-12T10:39:41;7.10;;;1.70;;
75851;SDS011;64500;52.632;20.656;2023-08-12T10:42:48;6.80;;;2.00;;
75851;SDS011;64500;52.632;20.656;2023-08-12T10:48:33;6.40;;;1.90;;
75851;SDS011;64500;52.632;20.656;2023-08-12T10:51:10;6.30;;;1.80;;
75851;SDS011;64500;52.632;20.656;2023-08-12T10:53:51;6.10;;;1.90;;
75851;SDS011;64500;52.632;20.656;2023-08-12T11:02:40;7.30;;;1.70;;
75851;SDS011;64500;52.632;20.656;2023-08-12T11:05:15;7.20;;;1.90;;
75851;SDS011;64500;52.632;20.656;2023-08-12T11:07:45;6.70;;;2.00;;
75851;SDS011;64500;52.632;20.656;2023-08-12T11:10:22;5.60;;;1.80;;
75851;SDS011;64500;52.632;20.656;2023-08-12T11:12:57;7.70;;;1.80;;
75851;SDS011;64500;52.632;20.656;2023-08-12T11:15:37;8.90;;;2.10;;
75851;SDS011;64500;52.632;20.656;2023-08-12T11:21:09;6.40;;;1.80;;
75851;SDS011;64500;52.632;20.656;2023-08-12T11:23:51;6.20;;;2.00;;
75851;SDS011;64500;52.632;20.656;2023-08-12T11:26:49;7.80;;;1.90;;
75851;SDS011;64500;52.632;20.656;2023-08-12T11:29:20;6.70;;;2.00;;
75851;SDS011;64500;52.632;20.656;2023-08-12T11:32:00;9.00;;;1.90;;
75851;SDS011;64500;52.632;20.656;2023-08-12T11:34:44;7.00;;;2.20;;
75851;SDS011;64500;52.632;20.656;2023-08-12T11:37:22;6.80;;;1.70;;
75851;SDS011;64500;52.632;20.656;2023-08-12T11:40:05;7.60;;;2.00;;
75851;SDS011;64500;52.632;20.656;2023-08-12T11:42:47;4.90;;;1.70;;
75851;SDS011;64500;52.632;20.656;2023-08-12T11:45:19;5.90;;;1.90;;
75851;SDS011;64500;52.632;20.656;2023-08-12T11:47:57;7.10;;;1.90;;
75851;SDS011;64500;52.632;20.656;2023-08-12T11:51:00;6.60;;;1.60;;
75851;SDS011;64500;52.632;20.656;2023-08-12T11:53:29;11.00;;;2.10;;
75851;SDS011;64500;52.632;20.656;2023-08-12T11:59:12;5.90;;;1.80;;
75851;SDS011;64500;52.632;20.656;2023-08-12T12:04:23;5.80;;;1.60;;
75851;SDS011;64500;52.632;20.656;2023-08-12T12:07:20;6.40;;;2.00;;
75851;SDS011;64500;52.632;20.656;2023-08-12T12:12:43;5.30;;;1.80;;
75851;SDS011;64500;52.632;20.656;2023-08-12T12:18:25;6.80;;;1.70;;
75851;SDS011;64500;52.632;20.656;2023-08-12T12:21:01;6.00;;;1.80;;
75851;SDS011;64500;52.632;20.656;2023-08-12T12:24:04;6.00;;;1.90;;
75851;SDS011;64500;52.632;20.656;2023-08-12T12:26:46;6.80;;;1.90;;
75851;SDS011;64500;52.632;20.656;2023-08-12T12:29:29;5.90;;;1.90;;
75851;SDS011;64500;52.632;20.656;2023-08-12T12:31:59;5.20;;;1.60;;
75851;SDS011;64500;52.632;20.656;2023-08-12T12:34:29;5.90;;;1.60;;
75851;SDS011;64500;52.632;20.656;2023-08-12T12:37:10;6.10;;;1.70;;
75851;SDS011;64500;52.632;20.656;2023-08-12T12:39:40;5.40;;;1.80;;
75851;SDS011;64500;52.632;20.656;2023-08-12T12:42:25;6.50;;;1.90;;
75851;SDS011;64500;52.632;20.656;2023-08-12T12:44:54;7.90;;;1.90;;
75851;SDS011;64500;52.632;20.656;2023-08-12T12:47:29;5.30;;;1.60;;
75851;SDS011;64500;52.632;20.656;2023-08-12T12:50:20;5.10;;;1.70;;
75851;SDS011;64500;52.632;20.656;2023-08-12T12:52:53;5.10;;;1.60;;
75851;SDS011;64500;52.632;20.656;2023-08-12T12:55:46;7.50;;;1.90;;
75851;SDS011;64500;52.632;20.656;2023-08-12T12:58:44;5.90;;;1.90;;
75851;SDS011;64500;52.632;20.656;2023-08-12T13:01:34;4.80;;;1.50;;
75851;SDS011;64500;52.632;20.656;2023-08-12T13:04:20;7.20;;;1.80;;
75851;SDS011;64500;52.632;20.656;2023-08-12T13:06:49;6.60;;;1.90;;
75851;SDS011;64500;52.632;20.656;2023-08-12T13:09:17;10.00;;;2.40;;
75851;SDS011;64500;52.632;20.656;2023-08-12T13:11:46;6.80;;;1.90;;
75851;SDS011;64500;52.632;20.656;2023-08-12T13:14:25;5.10;;;1.60;;
75851;SDS011;64500;52.632;20.656;2023-08-12T13:16:52;6.10;;;1.70;;
75851;SDS011;64500;52.632;20.656;2023-08-12T13:19:19;5.20;;;1.60;;
75851;SDS011;64500;52.632;20.656;2023-08-12T13:21:49;6.30;;;1.60;;
75851;SDS011;64500;52.632;20.656;2023-08-12T13:27:26;5.90;;;1.70;;
75851;SDS011;64500;52.632;20.656;2023-08-12T13:30:20;6.20;;;1.60;;
75851;SDS011;64500;52.632;20.656;2023-08-12T13:32:53;4.70;;;1.90;;
75851;SDS011;64500;52.632;20.656;2023-08-12T13:35:23;5.90;;;1.60;;
75851;SDS011;64500;52.632;20.656;2023-08-12T13:37:52;7.30;;;2.10;;
75851;SDS011;64500;52.632;20.656;2023-08-12T13:40:30;5.30;;;1.90;;
75851;SDS011;64500;52.632;20.656;2023-08-12T13:43:00;7.10;;;1.50;;
75851;SDS011;64500;52.632;20.656;2023-08-12T13:45:27;7.50;;;1.80;;
75851;SDS011;64500;52.632;20.656;2023-08-12T13:47:54;4.50;;;1.60;;
75851;SDS011;64500;52.632;20.656;2023-08-12T13:50:22;5.20;;;1.60;;
75851;SDS011;64500;52.632;20.656;2023-08-12T13:52:49;4.40;;;1.60;;
75851;SDS011;64500;52.632;20.656;2023-08-12T13:55:17;5.10;;;1.70;;
75851;SDS011;64500;52.632;20.656;2023-08-12T13:57:54;7.40;;;1.70;;
75851;SDS011;64500;52.632;20.656;2023-08-12T14:00:30;7.50;;;1.80;;
75851;SDS011;64500;52.632;20.656;2023-08-12T14:03:24;8.20;;;1.90;;
75851;SDS011;64500;52.632;20.656;2023-08-12T14:06:14;6.30;;;1.80;;
75851;SDS011;64500;52.632;20.656;2023-08-12T14:08:53;4.70;;;1.80;;
75851;SDS011;64500;52.632;20.656;2023-08-12T14:11:20;6.90;;;1.80;;
75851;SDS011;64500;52.632;20.656;2023-08-12T14:14:18;4.80;;;1.70;;
75851;SDS011;64500;52.632;20.656;2023-08-12T14:17:15;6.30;;;1.90;;
75851;SDS011;64500;52.632;20.656;2023-08-12T14:22:49;5.90;;;1.70;;
75851;SDS011;64500;52.632;20.656;2023-08-12T14:25:19;6.70;;;1.80;;
75851;SDS011;64500;52.632;20.656;2023-08-12T14:30:54;6.80;;;1.90;;
75851;SDS011;64500;52.632;20.656;2023-08-12T14:33:52;6.10;;;1.60;;
75851;SDS011;64500;52.632;20.656;2023-08-12T14:36:23;7.20;;;1.70;;
75851;SDS011;64500;52.632;20.656;2023-08-12T14:42:02;5.50;;;1.70;;
75851;SDS011;64500;52.632;20.656;2023-08-12T14:45:04;6.40;;;1.80;;
75851;SDS011;64500;52.632;20.656;2023-08-12T14:47:34;5.90;;;1.80;;
75851;SDS011;64500;52.632;20.656;2023-08-12T14:52:54;9.60;;;1.90;;
75851;SDS011;64500;52.632;20.656;2023-08-12T14:55:55;6.90;;;1.80;;
75851;SDS011;64500;52.632;20.656;2023-08-12T14:58:27;5.50;;;1.80;;
75851;SDS011;64500;52.632;20.656;2023-08-12T15:01:05;5.00;;;1.90;;
75851;SDS011;64500;52.632;20.656;2023-08-12T15:06:24;6.20;;;1.60;;
75851;SDS011;64500;52.632;20.656;2023-08-12T15:08:54;8.20;;;1.70;;
75851;SDS011;64500;52.632;20.656;2023-08-12T15:11:43;6.60;;;1.80;;
75851;SDS011;64500;52.632;20.656;2023-08-12T15:14:35;4.80;;;1.50;;
75851;SDS011;64500;52.632;20.656;2023-08-12T15:17:15;5.50;;;1.90;;
75851;SDS011;64500;52.632;20.656;2023-08-12T15:19:51;6.70;;;1.60;;
75851;SDS011;64500;52.632;20.656;2023-08-12T15:22:23;5.80;;;1.60;;
75851;SDS011;64500;52.632;20.656;2023-08-12T15:24:56;8.80;;;1.90;;
75851;SDS011;64500;52.632;20.656;2023-08-12T15:27:41;5.90;;;2.00;;
75851;SDS011;64500;52.632;20.656;2023-08-12T15:30:31;4.60;;;1.60;;
75851;SDS011;64500;52.632;20.656;2023-08-12T15:33:35;6.40;;;2.00;;
75851;SDS011;64500;52.632;20.656;2023-08-12T15:36:25;6.70;;;1.60;;
75851;SDS011;64500;52.632;20.656;2023-08-12T15:39:10;7.00;;;1.70;;
75851;SDS011;64500;52.632;20.656;2023-08-12T15:50:35;6.00;;;1.90;;
75851;SDS011;64500;52.632;20.656;2023-08-12T15:53:25;7.10;;;1.70;;
75851;SDS011;64500;52.632;20.656;2023-08-12T15:59:00;5.90;;;1.60;;
75851;SDS011;64500;52.632;20.656;2023-08-12T16:01:31;7.70;;;2.00;;
75851;SDS011;64500;52.632;20.656;2023-08-12T16:04:02;8.20;;;1.80;;
75851;SDS011;64500;52.632;20.656;2023-08-12T16:10:07;10.50;;;1.90;;
75851;SDS011;64500;52.632;20.656;2023-08-12T16:12:39;5.90;;;2.20;;
75851;SDS011;64500;52.632;20.656;2023-08-12T16:15:27;8.30;;;1.70;;
75851;SDS011;64500;52.632;20.656;2023-08-12T16:18:20;6.90;;;1.90;;
75851;SDS011;64500;52.632;20.656;2023-08-12T16:21:18;8.30;;;1.90;;
75851;SDS011;64500;52.632;20.656;2023-08-12T16:23:56;6.50;;;1.70;;
75851;SDS011;64500;52.632;20.656;2023-08-12T16:29:37;8.30;;;1.90;;
75851;SDS011;64500;52.632;20.656;2023-08-12T16:32:31;8.40;;;2.10;;
75851;SDS011;64500;52.632;20.656;2023-08-12T16:35:06;9.00;;;2.10;;
75851;SDS011;64500;52.632;20.656;2023-08-12T16:38:05;6.70;;;2.00;;
75851;SDS011;64500;52.632;20.656;2023-08-12T16:40:56;6.50;;;2.10;;
75851;SDS011;64500;52.632;20.656;2023-08-12T16:43:47;5.80;;;1.80;;
75851;SDS011;64500;52.632;20.656;2023-08-12T16:46:43;5.80;;;1.90;;
75851;SDS011;64500;52.632;20.656;2023-08-12T16:49:44;6.60;;;1.90;;
75851;SDS011;64500;52.632;20.656;2023-08-12T16:52:24;7.00;;;1.90;;
75851;SDS011;64500;52.632;20.656;2023-08-12T16:55:14;10.30;;;3.20;;
75851;SDS011;64500;52.632;20.656;2023-08-12T16:58:11;9.70;;;3.50;;
75851;SDS011;64500;52.632;20.656;2023-08-12T17:00:45;7.20;;;3.00;;
75851;SDS011;64500;52.632;20.656;2023-08-12T17:04:00;10.30;;;2.80;;
75851;SDS011;64500;52.632;20.656;2023-08-12T17:06:47;9.90;;;2.80;;
75851;SDS011;64500;52.632;20.656;2023-08-12T17:15:22;13.80;;;2.70;;
75851;SDS011;64500;52.632;20.656;2023-08-12T17:17:54;13.20;;;3.00;;
75851;SDS011;64500;52.632;20.656;2023-08-12T17:20:51;13.00;;;3.80;;
75851;SDS011;64500;52.632;20.656;2023-08-12T17:26:38;11.10;;;2.60;;
75851;SDS011;64500;52.632;20.656;2023-08-12T17:29:24;10.80;;;2.70;;
75851;SDS011;64500;52.632;20.656;2023-08-12T17:31:55;7.40;;;2.40;;
75851;SDS011;64500;52.632;20.656;2023-08-12T17:34:30;9.80;;;2.40;;
75851;SDS011;64500;52.632;20.656;2023-08-12T17:37:03;8.00;;;2.40;;
75851;SDS011;64500;52.632;20.656;2023-08-12T17:39:51;7.10;;;2.50;;
75851;SDS011;64500;52.632;20.656;2023-08-12T17:42:48;7.50;;;2.40;;
75851;SDS011;64500;52.632;20.656;2023-08-12T17:45:28;8.60;;;2.80;;
75851;SDS011;64500;52.632;20.656;2023-08-12T17:48:07;8.10;;;2.80;;
75851;SDS011;64500;52.632;20.656;2023-08-12T17:51:10;8.70;;;3.20;;
75851;SDS011;64500;52.632;20.656;2023-08-12T17:53:57;10.90;;;3.20;;
75851;SDS011;64500;52.632;20.656;2023-08-12T18:00:08;10.30;;;3.20;;
75851;SDS011;64500;52.632;20.656;2023-08-12T18:06:16;9.00;;;4.10;;
75851;SDS011;64500;52.632;20.656;2023-08-12T18:09:01;9.50;;;4.30;;
75851;SDS011;64500;52.632;20.656;2023-08-12T18:18:38;9.50;;;4.20;;
75851;SDS011;64500;52.632;20.656;2023-08-12T18:24:07;11.90;;;4.70;;
75851;SDS011;64500;52.632;20.656;2023-08-12T18:29:25;13.20;;;5.60;;
75851;SDS011;64500;52.632;20.656;2023-08-12T18:32:06;13.60;;;5.70;;
75851;SDS011;64500;52.632;20.656;2023-08-12T18:34:46;13.30;;;5.70;;
75851;SDS011;64500;52.632;20.656;2023-08-12T18:37:38;12.30;;;5.80;;
75851;SDS011;64500;52.632;20.656;2023-08-12T18:40:17;17.70;;;5.70;;
75851;SDS011;64500;52.632;20.656;2023-08-12T18:42:59;13.40;;;5.40;;
75851;SDS011;64500;52.632;20.656;2023-08-12T18:45:49;13.40;;;5.10;;
75851;SDS011;64500;52.632;20.656;2023-08-12T18:48:38;11.10;;;5.00;;
75851;SDS011;64500;52.632;20.656;2023-08-12T18:51:23;13.70;;;5.60;;